Time;durP1;ratioP1;P1;durP2;ratioP2;P2;SDS_P1;SDS_P2;PMS_P1;PMS_P2;Temp;Humidity;BMP_temperature;BMP_pressure;BME280_temperature;BME280_humidity;BME280_pressure;Samples;Min_cycle;Max_cycle;Signal;HPM_P1;HPM_P2
2022/01/13 00:00:18;;;;;;;14.47;9.80;;;;;;;;;;4914885;29;20214;-91
2022/01/13 00:02:46;;;;;;;16.60;9.27;;;;;;;;;;4921617;29;20203;-91
2022/01/13 00:05:14;;;;;;;13.50;10.03;;;;;;;;;;4917372;29;20211;-92
2022/01/13 00:07:42;;;;;;;13.77;9.37;;;;;;;;;;4913627;29;20709;-91
2022/01/13 00:10:10;;;;;;;17.77;10.53;;;;;;;;;;4919711;29;20207;-92
2022/01/13 00:12:41;;;;;;;17.83;10.90;;;;;;;;;;4919434;29;20215;-92
2022/01/13 00:15:21;;;;;;;16.03;10.13;;;;;;;;;;4915524;29;20727;-91
2022/01/13 00:18:08;;;;;;;15.07;9.37;;;;;;;;;;4920469;29;20322;-91
2022/01/13 00:21:09;;;;;;;15.87;10.47;;;;;;;;;;4917979;29;20207;-92
2022/01/13 00:23:46;;;;;;;16.20;9.77;;;;;;;;;;4915692;29;20283;-92
2022/01/13 00:26:20;;;;;;;16.70;9.87;;;;;;;;;;4920196;29;20221;-92
2022/01/13 00:28:50;;;;;;;16.00;10.13;;;;;;;;;;4921127;29;20241;-91
2022/01/13 00:31:22;;;;;;;14.27;9.90;;;;;;;;;;4912897;29;20206;-91
2022/01/13 00:33:54;;;;;;;13.13;8.27;;;;;;;;;;4917228;29;20230;-93
2022/01/13 00:36:21;;;;;;;15.67;9.00;;;;;;;;;;4920997;29;20262;-91
2022/01/13 00:38:50;;;;;;;13.83;8.90;;;;;;;;;;4918093;29;20766;-92
2022/01/13 00:41:17;;;;;;;14.57;8.47;;;;;;;;;;4914572;29;20259;-91
2022/01/13 00:43:46;;;;;;;15.10;9.23;;;;;;;;;;4920260;29;20210;-91
2022/01/13 00:46:20;;;;;;;18.63;9.47;;;;;;;;;;4920733;29;20203;-91
2022/01/13 00:48:48;;;;;;;19.07;11.07;;;;;;;;;;4908230;29;20237;-92
2022/01/13 00:51:15;;;;;;;18.60;11.30;;;;;;;;;;4919454;29;20211;-91
2022/01/13 00:53:43;;;;;;;22.17;12.07;;;;;;;;;;4919504;29;20206;-91
2022/01/13 00:56:12;;;;;;;15.60;9.27;;;;;;;;;;4914746;29;20310;-92
2022/01/13 00:58:39;;;;;;;15.93;10.87;;;;;;;;;;4917643;29;20289;-92
2022/01/13 01:01:08;;;;;;;18.63;11.47;;;;;;;;;;4919716;29;20643;-91
2022/01/13 01:03:35;;;;;;;18.27;11.87;;;;;;;;;;4920307;29;20218;-91
2022/01/13 01:06:04;;;;;;;18.73;11.20;;;;;;;;;;4913932;29;20222;-91
2022/01/13 01:08:32;;;;;;;19.90;11.97;;;;;;;;;;4918903;29;20704;-92
2022/01/13 01:11:02;;;;;;;18.60;11.33;;;;;;;;;;4920165;29;20239;-91
2022/01/13 01:13:33;;;;;;;16.83;11.43;;;;;;;;;;4920661;29;20301;-92
2022/01/13 01:16:02;;;;;;;20.80;10.90;;;;;;;;;;4908109;29;20241;-94
2022/01/13 01:18:36;;;;;;;16.53;10.87;;;;;;;;;;4914148;29;20230;-91
2022/01/13 01:21:31;;;;;;;16.73;11.40;;;;;;;;;;4920040;29;20206;-91
2022/01/13 01:24:17;;;;;;;17.47;10.87;;;;;;;;;;4906590;29;20222;-91
2022/01/13 01:26:47;;;;;;;18.93;10.73;;;;;;;;;;4915421;29;20664;-91
2022/01/13 01:29:21;;;;;;;15.53;9.57;;;;;;;;;;4901686;29;20248;-91
2022/01/13 01:31:51;;;;;;;18.47;11.47;;;;;;;;;;4900358;29;20210;-91
2022/01/13 01:34:31;;;;;;;23.30;12.30;;;;;;;;;;4919613;29;20221;-91
2022/01/13 01:36:59;;;;;;;18.67;11.40;;;;;;;;;;4919093;29;20230;-91
2022/01/13 01:39:27;;;;;;;20.53;11.43;;;;;;;;;;4917735;29;20225;-92
2022/01/13 01:41:55;;;;;;;19.47;11.77;;;;;;;;;;4912660;29;20274;-91
2022/01/13 01:44:29;;;;;;;15.93;10.77;;;;;;;;;;4919719;29;20202;-91
2022/01/13 01:46:58;;;;;;;19.27;11.47;;;;;;;;;;4917542;29;20378;-91
2022/01/13 01:49:26;;;;;;;18.73;12.50;;;;;;;;;;4903782;29;20271;-91
2022/01/13 01:51:54;;;;;;;21.80;12.40;;;;;;;;;;4915753;29;20218;-91
2022/01/13 01:54:22;;;;;;;20.37;11.37;;;;;;;;;;4919840;29;20236;-91
2022/01/13 01:56:50;;;;;;;18.37;10.30;;;;;;;;;;4908423;29;20598;-92
2022/01/13 01:59:20;;;;;;;20.83;12.47;;;;;;;;;;4911330;29;20262;-91
2022/01/13 02:01:50;;;;;;;20.87;12.43;;;;;;;;;;4906008;29;20275;-91
2022/01/13 02:04:18;;;;;;;19.27;10.93;;;;;;;;;;4916295;29;20556;-92
2022/01/13 02:06:46;;;;;;;18.53;10.40;;;;;;;;;;4918898;29;20245;-91
2022/01/13 02:09:14;;;;;;;18.57;10.43;;;;;;;;;;4919366;29;20282;-91
2022/01/13 02:11:48;;;;;;;20.83;10.47;;;;;;;;;;4911132;29;20262;-92
2022/01/13 02:14:32;;;;;;;15.97;10.27;;;;;;;;;;4911545;29;20203;-91
2022/01/13 02:17:04;;;;;;;17.70;11.40;;;;;;;;;;4919387;29;20234;-92
2022/01/13 02:19:32;;;;;;;15.23;10.67;;;;;;;;;;4912365;29;20211;-92
2022/01/13 02:22:01;;;;;;;19.37;11.87;;;;;;;;;;4916339;29;20218;-90
2022/01/13 02:24:28;;;;;;;21.90;12.07;;;;;;;;;;4918647;29;20623;-91
2022/01/13 02:26:55;;;;;;;18.93;11.87;;;;;;;;;;4919311;29;20242;-91
2022/01/13 02:29:23;;;;;;;17.93;10.73;;;;;;;;;;4911615;29;20644;-91
2022/01/13 02:31:50;;;;;;;15.37;10.37;;;;;;;;;;4911267;29;20210;-91
2022/01/13 02:34:17;;;;;;;18.83;12.13;;;;;;;;;;4918756;29;20232;-92
2022/01/13 02:36:46;;;;;;;18.20;11.30;;;;;;;;;;4917897;29;20238;-91
2022/01/13 02:39:15;;;;;;;18.33;10.83;;;;;;;;;;4913115;29;20214;-91
2022/01/13 02:41:42;;;;;;;17.23;10.73;;;;;;;;;;4913816;29;20207;-92
2022/01/13 02:44:15;;;;;;;21.70;12.47;;;;;;;;;;4918722;29;20207;-91
2022/01/13 02:47:08;;;;;;;19.30;10.90;;;;;;;;;;4918892;29;20214;-91
2022/01/13 02:49:36;;;;;;;17.43;10.93;;;;;;;;;;4913146;29;20214;-91
2022/01/13 02:52:04;;;;;;;19.77;12.00;;;;;;;;;;4918138;29;20214;-91
2022/01/13 02:54:33;;;;;;;21.80;12.30;;;;;;;;;;4918904;29;20210;-92
2022/01/13 02:57:00;;;;;;;22.50;12.47;;;;;;;;;;4916055;29;20234;-91
2022/01/13 02:59:27;;;;;;;22.57;13.47;;;;;;;;;;4910935;29;20203;-91
2022/01/13 03:01:55;;;;;;;20.77;12.00;;;;;;;;;;4918502;29;20356;-90
2022/01/13 03:04:24;;;;;;;18.60;11.40;;;;;;;;;;4918724;29;20630;-91
2022/01/13 03:06:51;;;;;;;16.23;11.70;;;;;;;;;;4905919;29;20696;-91
2022/01/13 03:09:21;;;;;;;22.57;13.33;;;;;;;;;;4917003;29;20215;-91
2022/01/13 03:11:50;;;;;;;19.93;11.73;;;;;;;;;;4917884;29;20271;-91
2022/01/13 03:14:18;;;;;;;20.93;12.07;;;;;;;;;;4907114;29;20289;-90
2022/01/13 03:16:46;;;;;;;21.27;13.33;;;;;;;;;;4915456;29;20238;-91
2022/01/13 03:19:13;;;;;;;22.00;12.90;;;;;;;;;;4918356;29;20219;-90
2022/01/13 03:21:41;;;;;;;21.27;12.83;;;;;;;;;;4914918;29;20206;-91
2022/01/13 03:24:11;;;;;;;21.30;12.40;;;;;;;;;;4910898;29;20246;-91
2022/01/13 03:26:38;;;;;;;17.30;10.97;;;;;;;;;;4917529;29;20230;-91
2022/01/13 03:29:17;;;;;;;19.57;11.60;;;;;;;;;;4918368;29;20214;-91
2022/01/13 03:31:45;;;;;;;21.33;13.30;;;;;;;;;;4914044;29;20230;-92
2022/01/13 03:34:13;;;;;;;20.43;13.03;;;;;;;;;;4917138;29;20274;-92
2022/01/13 03:36:41;;;;;;;25.30;13.03;;;;;;;;;;4911348;29;20322;-91
2022/01/13 03:39:09;;;;;;;21.23;13.47;;;;;;;;;;4910483;29;20210;-91
2022/01/13 03:41:36;;;;;;;24.70;14.00;;;;;;;;;;4917576;29;20203;-91
2022/01/13 03:44:07;;;;;;;21.23;13.60;;;;;;;;;;4916120;29;20210;-92
2022/01/13 03:46:37;;;;;;;23.00;13.60;;;;;;;;;;4912185;29;20213;-91
2022/01/13 03:49:07;;;;;;;23.27;13.50;;;;;;;;;;4917337;29;20218;-92
2022/01/13 03:52:06;;;;;;;24.23;13.77;;;;;;;;;;4917873;29;20213;-91
2022/01/13 03:54:48;;;;;;;20.00;10.87;;;;;;;;;;4907590;29;20211;-91
2022/01/13 03:57:31;;;;;;;20.60;13.30;;;;;;;;;;4916761;29;20238;-91
2022/01/13 04:00:15;;;;;;;21.87;13.03;;;;;;;;;;4918314;29;20226;-91
2022/01/13 04:02:45;;;;;;;23.40;13.07;;;;;;;;;;4906853;29;20233;-91
2022/01/13 04:05:12;;;;;;;25.03;13.93;;;;;;;;;;4910393;29;20208;-91
2022/01/13 04:07:39;;;;;;;20.10;12.43;;;;;;;;;;4912830;29;20277;-91
2022/01/13 04:10:26;;;;;;;20.90;12.77;;;;;;;;;;4918019;29;20211;-91
2022/01/13 04:12:53;;;;;;;18.97;12.77;;;;;;;;;;4910599;29;20800;-91
2022/01/13 04:15:21;;;;;;;22.40;12.80;;;;;;;;;;4916796;29;20239;-91
2022/01/13 04:17:50;;;;;;;21.90;13.33;;;;;;;;;;4917861;29;20230;-91
2022/01/13 04:20:18;;;;;;;21.63;11.90;;;;;;;;;;4902150;29;20207;-91
2022/01/13 04:22:47;;;;;;;23.23;13.17;;;;;;;;;;4909598;29;20203;-91
2022/01/13 04:25:20;;;;;;;21.83;13.43;;;;;;;;;;4913264;29;20211;-91
2022/01/13 04:27:48;;;;;;;19.27;11.27;;;;;;;;;;4921190;29;20234;-91
2022/01/13 04:30:46;;;;;;;20.23;11.90;;;;;;;;;;4915051;29;20259;-91
2022/01/13 04:33:14;;;;;;;20.17;12.13;;;;;;;;;;4920553;29;20265;-91
2022/01/13 04:35:42;;;;;;;19.63;11.27;;;;;;;;;;4920324;29;20265;-91
2022/01/13 04:38:10;;;;;;;20.90;11.80;;;;;;;;;;4918646;29;20301;-91
2022/01/13 04:40:44;;;;;;;17.03;11.03;;;;;;;;;;4910305;29;20627;-90
2022/01/13 04:43:11;;;;;;;21.97;12.73;;;;;;;;;;4919842;29;20532;-91
2022/01/13 04:45:39;;;;;;;19.37;11.90;;;;;;;;;;4920727;29;20255;-91
2022/01/13 04:48:06;;;;;;;21.60;12.30;;;;;;;;;;4904141;29;20283;-91
2022/01/13 04:50:35;;;;;;;18.53;11.90;;;;;;;;;;4920151;29;20206;-91
2022/01/13 04:53:02;;;;;;;25.47;14.50;;;;;;;;;;4920812;29;20211;-91
2022/01/13 04:55:32;;;;;;;20.37;12.60;;;;;;;;;;4921296;29;20270;-91
2022/01/13 04:58:01;;;;;;;20.47;11.67;;;;;;;;;;4915112;29;20235;-91
2022/01/13 05:00:29;;;;;;;20.23;11.13;;;;;;;;;;4920578;29;20222;-91
2022/01/13 05:02:56;;;;;;;20.40;13.00;;;;;;;;;;4920340;29;20213;-91
2022/01/13 05:05:24;;;;;;;19.77;11.90;;;;;;;;;;4911191;29;20211;-91
2022/01/13 05:07:53;;;;;;;24.23;11.93;;;;;;;;;;4915080;29;20299;-91
2022/01/13 05:10:20;;;;;;;19.90;12.00;;;;;;;;;;4919807;29;20210;-91
2022/01/13 05:12:53;;;;;;;23.37;12.30;;;;;;;;;;4916264;29;20219;-91
2022/01/13 05:15:23;;;;;;;21.20;13.77;;;;;;;;;;4913390;29;20235;-91
2022/01/13 05:20:41;;;;;;;19.37;12.37;;;;;;;;;;4919777;29;20218;-91
2022/01/13 05:23:11;;;;;;;22.87;13.57;;;;;;;;;;4912212;29;20310;-91
2022/01/13 05:25:39;;;;;;;20.63;12.20;;;;;;;;;;4919803;29;20214;-92
2022/01/13 05:28:07;;;;;;;19.10;11.90;;;;;;;;;;4918558;29;20727;-91
2022/01/13 05:30:34;;;;;;;17.57;11.37;;;;;;;;;;4916711;29;20225;-91
2022/01/13 05:33:01;;;;;;;19.80;11.90;;;;;;;;;;4912469;29;20270;-91
2022/01/13 05:35:29;;;;;;;21.00;12.10;;;;;;;;;;4918436;29;20206;-91
2022/01/13 05:37:56;;;;;;;20.57;13.10;;;;;;;;;;4918636;29;20282;-90
2022/01/13 05:40:30;;;;;;;19.73;12.47;;;;;;;;;;4912271;29;20246;-90
2022/01/13 05:42:58;;;;;;;22.43;13.57;;;;;;;;;;4917705;29;20269;-91
2022/01/13 05:45:29;;;;;;;19.43;11.97;;;;;;;;;;4920553;29;20219;-90
2022/01/13 05:47:56;;;;;;;19.50;12.07;;;;;;;;;;4914458;29;20235;-90
2022/01/13 05:50:24;;;;;;;19.00;11.70;;;;;;;;;;4914516;29;20635;-90
2022/01/13 05:52:51;;;;;;;17.27;11.03;;;;;;;;;;4920389;29;20217;-90
2022/01/13 05:55:19;;;;;;;23.53;11.70;;;;;;;;;;4918574;29;20210;-92
2022/01/13 05:57:48;;;;;;;16.77;11.60;;;;;;;;;;4911716;29;20279;-90
2022/01/13 06:00:17;;;;;;;22.17;12.67;;;;;;;;;;4919645;29;20202;-90
2022/01/13 06:02:45;;;;;;;17.37;10.73;;;;;;;;;;4920560;29;20258;-90
2022/01/13 06:05:12;;;;;;;22.93;11.90;;;;;;;;;;4915429;29;20242;-90
2022/01/13 06:07:40;;;;;;;18.90;11.67;;;;;;;;;;4916129;29;20223;-90
2022/01/13 06:10:10;;;;;;;21.10;12.03;;;;;;;;;;4920501;29;20211;-90
2022/01/13 06:12:38;;;;;;;19.83;12.50;;;;;;;;;;4917518;29;20297;-90
2022/01/13 06:15:08;;;;;;;19.53;11.10;;;;;;;;;;4909639;29;20612;-90
2022/01/13 06:17:36;;;;;;;20.60;12.07;;;;;;;;;;4921153;29;20230;-90
2022/01/13 06:20:03;;;;;;;21.40;12.03;;;;;;;;;;4921060;29;20255;-90
2022/01/13 06:22:31;;;;;;;23.13;12.23;;;;;;;;;;4912010;29;20263;-90
2022/01/13 06:24:58;;;;;;;18.70;11.40;;;;;;;;;;4913496;29;20252;-90
2022/01/13 06:27:25;;;;;;;23.23;12.77;;;;;;;;;;4875191;29;1242007;-89
2022/01/13 06:29:53;;;;;;;17.33;11.53;;;;;;;;;;4921242;29;20207;-90
2022/01/13 06:32:22;;;;;;;20.73;12.43;;;;;;;;;;4915975;29;20266;-90
2022/01/13 06:34:50;;;;;;;19.30;11.67;;;;;;;;;;4917630;29;20219;-90
2022/01/13 06:37:18;;;;;;;19.40;12.07;;;;;;;;;;4920831;29;20286;-90
2022/01/13 06:39:45;;;;;;;19.80;12.27;;;;;;;;;;4915076;29;20210;-90
2022/01/13 06:42:13;;;;;;;20.83;11.87;;;;;;;;;;4919398;29;20266;-90
2022/01/13 06:44:41;;;;;;;22.10;11.57;;;;;;;;;;4909022;29;20240;-89
2022/01/13 06:47:08;;;;;;;25.77;13.93;;;;;;;;;;4919134;29;20281;-91
2022/01/13 06:49:38;;;;;;;18.33;11.27;;;;;;;;;;4920011;29;20207;-90
2022/01/13 06:52:05;;;;;;;23.20;12.43;;;;;;;;;;4920656;29;20623;-91
2022/01/13 06:54:33;;;;;;;20.90;13.63;;;;;;;;;;4909229;29;20206;-91
2022/01/13 06:57:00;;;;;;;21.67;11.93;;;;;;;;;;4919324;29;20239;-90
2022/01/13 06:59:27;;;;;;;20.50;11.73;;;;;;;;;;4920032;29;20215;-90
2022/01/13 07:01:56;;;;;;;22.37;11.57;;;;;;;;;;4908746;29;20215;-90
2022/01/13 07:04:24;;;;;;;18.30;11.60;;;;;;;;;;4919136;29;20697;-91
2022/01/13 07:06:53;;;;;;;19.67;12.47;;;;;;;;;;4918966;29;20253;-90
2022/01/13 07:09:21;;;;;;;21.47;11.87;;;;;;;;;;4920644;29;20203;-91
2022/01/13 07:11:48;;;;;;;20.17;11.30;;;;;;;;;;4919422;29;20210;-91
2022/01/13 07:14:15;;;;;;;19.83;12.20;;;;;;;;;;4918949;29;20207;-91
2022/01/13 07:16:44;;;;;;;19.60;11.33;;;;;;;;;;4922911;29;20571;-90
2022/01/13 07:19:11;;;;;;;21.30;11.10;;;;;;;;;;4910825;29;20202;-90
2022/01/13 07:21:40;;;;;;;20.70;12.27;;;;;;;;;;4918699;29;20215;-90
2022/01/13 07:24:10;;;;;;;17.93;11.97;;;;;;;;;;4919601;29;20566;-91
2022/01/13 07:26:37;;;;;;;17.30;10.80;;;;;;;;;;4914915;29;20223;-90
2022/01/13 07:29:04;;;;;;;19.23;11.63;;;;;;;;;;4918130;29;20207;-91
2022/01/13 07:31:32;;;;;;;19.37;10.67;;;;;;;;;;4918849;29;20202;-91
2022/01/13 07:33:59;;;;;;;20.97;11.90;;;;;;;;;;4917183;29;20266;-91
2022/01/13 07:36:26;;;;;;;16.90;11.63;;;;;;;;;;4911666;29;20222;-91
2022/01/13 07:38:54;;;;;;;18.67;11.20;;;;;;;;;;4918147;29;20368;-90
2022/01/13 07:41:22;;;;;;;20.10;11.90;;;;;;;;;;4916699;29;20214;-91
2022/01/13 07:43:54;;;;;;;16.53;10.70;;;;;;;;;;4916189;29;20207;-90
2022/01/13 07:46:21;;;;;;;20.17;11.73;;;;;;;;;;4918588;29;20254;-90
2022/01/13 07:48:49;;;;;;;20.03;11.47;;;;;;;;;;4919026;29;20282;-91
2022/01/13 07:51:16;;;;;;;19.17;11.50;;;;;;;;;;4913386;29;20279;-91
2022/01/13 07:53:43;;;;;;;16.80;10.33;;;;;;;;;;4918664;29;20210;-90
2022/01/13 07:56:11;;;;;;;18.73;11.03;;;;;;;;;;4916441;29;20207;-90
2022/01/13 07:58:40;;;;;;;18.30;11.60;;;;;;;;;;4918447;29;20294;-90
2022/01/13 08:01:08;;;;;;;18.20;10.67;;;;;;;;;;4922392;29;20254;-90
2022/01/13 08:03:35;;;;;;;19.80;12.20;;;;;;;;;;4913183;29;20204;-90
2022/01/13 08:06:04;;;;;;;21.97;12.63;;;;;;;;;;4921048;29;20274;-90
2022/01/13 08:08:32;;;;;;;19.20;11.97;;;;;;;;;;4922676;29;20218;-90
2022/01/13 08:10:59;;;;;;;18.67;11.47;;;;;;;;;;4919369;29;20219;-90
2022/01/13 08:13:27;;;;;;;20.13;11.13;;;;;;;;;;4912164;29;20480;-91
2022/01/13 08:15:55;;;;;;;19.30;11.37;;;;;;;;;;4909366;29;20221;-90
2022/01/13 08:21:13;;;;;;;18.77;11.00;;;;;;;;;;4916793;29;20302;-91
2022/01/13 08:23:41;;;;;;;16.97;10.20;;;;;;;;;;4902292;29;20206;-91
2022/01/13 08:26:08;;;;;;;20.07;12.03;;;;;;;;;;4908960;29;20211;-91
2022/01/13 08:28:36;;;;;;;19.10;11.13;;;;;;;;;;4911714;29;20585;-91
2022/01/13 08:31:05;;;;;;;18.53;10.57;;;;;;;;;;4917758;29;20640;-91
2022/01/13 08:33:32;;;;;;;21.67;11.60;;;;;;;;;;4918555;29;20238;-91
2022/01/13 08:36:00;;;;;;;17.37;10.47;;;;;;;;;;4918498;29;20215;-91
2022/01/13 08:38:27;;;;;;;15.73;10.17;;;;;;;;;;4914354;29;20278;-92
2022/01/13 08:40:56;;;;;;;18.40;11.40;;;;;;;;;;4918155;29;20753;-93
2022/01/13 08:43:24;;;;;;;17.37;10.37;;;;;;;;;;4918305;29;20846;-90
2022/01/13 08:45:52;;;;;;;17.40;11.67;;;;;;;;;;4907189;29;20281;-90
2022/01/13 08:48:21;;;;;;;18.67;10.97;;;;;;;;;;4909849;29;20625;-93
2022/01/13 08:50:49;;;;;;;21.33;12.20;;;;;;;;;;4916405;29;20202;-91
2022/01/13 08:53:17;;;;;;;15.07;9.73;;;;;;;;;;4918068;29;20214;-90
2022/01/13 08:55:44;;;;;;;16.50;10.27;;;;;;;;;;4915463;29;20270;-93
2022/01/13 08:58:11;;;;;;;16.57;9.83;;;;;;;;;;4911256;29;20238;-91
2022/01/13 09:00:39;;;;;;;19.60;10.47;;;;;;;;;;4917148;29;20254;-92
2022/01/13 09:03:09;;;;;;;17.60;10.37;;;;;;;;;;4915848;29;20211;-91
2022/01/13 09:05:39;;;;;;;20.47;11.90;;;;;;;;;;4917413;29;20209;-91
2022/01/13 09:08:07;;;;;;;23.27;13.80;;;;;;;;;;4917076;29;20688;-90
2022/01/13 09:10:34;;;;;;;18.73;12.30;;;;;;;;;;4915550;29;20211;-90
2022/01/13 09:13:01;;;;;;;19.07;11.13;;;;;;;;;;4917186;29;20203;-93
2022/01/13 09:15:35;;;;;;;20.07;12.07;;;;;;;;;;4917163;29;20202;-90
2022/01/13 09:18:08;;;;;;;18.17;12.33;;;;;;;;;;4908499;29;20236;-90
2022/01/13 09:20:37;;;;;;;18.27;10.13;;;;;;;;;;4906137;29;20222;-91
2022/01/13 09:23:05;;;;;;;22.93;13.30;;;;;;;;;;4909641;29;20218;-90
2022/01/13 09:25:32;;;;;;;20.37;11.87;;;;;;;;;;4916584;29;20567;-90
2022/01/13 09:28:00;;;;;;;21.97;13.00;;;;;;;;;;4901685;29;20268;-90
2022/01/13 09:30:27;;;;;;;21.07;13.37;;;;;;;;;;4908352;29;20206;-90
2022/01/13 09:32:55;;;;;;;21.43;12.70;;;;;;;;;;4915799;29;20638;-90
2022/01/13 09:35:22;;;;;;;20.93;12.83;;;;;;;;;;4908839;29;20211;-90
2022/01/13 09:37:51;;;;;;;18.00;12.07;;;;;;;;;;4910482;29;20359;-90
2022/01/13 09:40:18;;;;;;;19.70;12.87;;;;;;;;;;4915752;29;20231;-93
2022/01/13 09:42:46;;;;;;;19.53;13.17;;;;;;;;;;4916013;29;20219;-90
2022/01/13 09:45:14;;;;;;;20.10;12.70;;;;;;;;;;4899107;29;20691;-90
2022/01/13 09:47:43;;;;;;;19.50;12.43;;;;;;;;;;4908881;29;20230;-93
2022/01/13 09:50:13;;;;;;;17.47;11.83;;;;;;;;;;4916066;29;20211;-89
2022/01/13 09:52:40;;;;;;;19.63;12.50;;;;;;;;;;4913062;29;20222;-90
2022/01/13 09:55:10;;;;;;;20.70;12.47;;;;;;;;;;4911207;29;20215;-91
2022/01/13 09:57:41;;;;;;;20.90;11.77;;;;;;;;;;4915358;29;20277;-90
2022/01/13 10:00:09;;;;;;;19.03;11.80;;;;;;;;;;4915999;29;20203;-90
2022/01/13 10:02:36;;;;;;;19.80;12.37;;;;;;;;;;4906598;29;20627;-90
2022/01/13 10:05:04;;;;;;;21.53;13.20;;;;;;;;;;4909674;29;20648;-91
2022/01/13 10:07:32;;;;;;;19.73;12.00;;;;;;;;;;4910464;29;20222;-90
2022/01/13 10:10:01;;;;;;;20.57;11.63;;;;;;;;;;4913168;29;20278;-89
2022/01/13 10:12:36;;;;;;;21.00;12.90;;;;;;;;;;4908214;29;20609;-92
2022/01/13 10:17:50;;;;;;;22.93;13.37;;;;;;;;;;4911956;29;20291;-91
2022/01/13 10:20:18;;;;;;;21.20;12.70;;;;;;;;;;4911535;29;20215;-91
2022/01/13 10:22:45;;;;;;;22.63;12.80;;;;;;;;;;4912183;29;20239;-90
2022/01/13 10:25:26;;;;;;;19.80;11.93;;;;;;;;;;4915226;29;20207;-89
2022/01/13 10:27:55;;;;;;;22.67;13.60;;;;;;;;;;4910230;29;20249;-89
2022/01/13 10:30:25;;;;;;;20.70;12.33;;;;;;;;;;4906297;29;20214;-90
2022/01/13 10:32:53;;;;;;;24.43;13.63;;;;;;;;;;4914727;29;20206;-91
2022/01/13 10:35:22;;;;;;;21.70;12.53;;;;;;;;;;4910573;29;20294;-89
2022/01/13 10:37:53;;;;;;;19.23;12.30;;;;;;;;;;4899074;29;20231;-91
2022/01/13 10:40:24;;;;;;;19.17;11.67;;;;;;;;;;4912524;29;20210;-90
2022/01/13 10:43:07;;;;;;;17.77;12.17;;;;;;;;;;4915287;29;20225;-92
2022/01/13 10:45:41;;;;;;;20.27;12.87;;;;;;;;;;4913028;29;20207;-91
2022/01/13 10:48:09;;;;;;;22.23;11.63;;;;;;;;;;4898516;29;20226;-92
2022/01/13 10:50:39;;;;;;;20.10;12.53;;;;;;;;;;4910561;29;20202;-90
2022/01/13 10:53:08;;;;;;;21.57;13.10;;;;;;;;;;4915205;29;20214;-89
2022/01/13 10:55:38;;;;;;;17.17;11.63;;;;;;;;;;4909788;29;20219;-90
2022/01/13 10:58:05;;;;;;;20.97;12.07;;;;;;;;;;4905761;29;20227;-90
2022/01/13 11:00:34;;;;;;;19.07;12.03;;;;;;;;;;4915613;29;20259;-89
2022/01/13 11:03:04;;;;;;;23.33;12.67;;;;;;;;;;4915061;29;20708;-92
2022/01/13 11:05:34;;;;;;;22.87;12.13;;;;;;;;;;4905174;29;20247;-90
2022/01/13 11:08:03;;;;;;;21.80;13.07;;;;;;;;;;4914601;29;20771;-89
2022/01/13 11:10:31;;;;;;;20.97;11.90;;;;;;;;;;4915412;29;20252;-91
2022/01/13 11:13:00;;;;;;;18.00;12.00;;;;;;;;;;4911542;29;20739;-89
2022/01/13 11:15:29;;;;;;;21.57;12.00;;;;;;;;;;4911394;29;20226;-89
2022/01/13 11:17:56;;;;;;;16.97;11.33;;;;;;;;;;4915291;29;20234;-89
2022/01/13 11:20:25;;;;;;;15.83;10.40;;;;;;;;;;4916486;29;20214;-91
2022/01/13 11:22:54;;;;;;;15.63;9.33;;;;;;;;;;4916353;29;20262;-89
2022/01/13 11:25:24;;;;;;;17.63;9.80;;;;;;;;;;4916400;29;20206;-89
2022/01/13 11:27:52;;;;;;;16.13;9.77;;;;;;;;;;4915909;29;20243;-89
2022/01/13 11:30:20;;;;;;;17.40;10.07;;;;;;;;;;4913045;29;20238;-90
2022/01/13 11:32:48;;;;;;;15.70;9.30;;;;;;;;;;4920417;29;20265;-89
2022/01/13 11:35:16;;;;;;;15.07;9.30;;;;;;;;;;4920232;29;20206;-89
2022/01/13 11:37:45;;;;;;;14.70;8.60;;;;;;;;;;4917866;29;20231;-89
2022/01/13 11:40:33;;;;;;;13.70;7.57;;;;;;;;;;4919316;29;20652;-89
2022/01/13 11:43:02;;;;;;;14.13;7.70;;;;;;;;;;4919928;29;20214;-91
2022/01/13 11:45:30;;;;;;;13.97;8.00;;;;;;;;;;4915960;29;20211;-90
2022/01/13 11:48:14;;;;;;;15.07;8.80;;;;;;;;;;4913446;29;20222;-90
2022/01/13 11:50:48;;;;;;;15.63;8.33;;;;;;;;;;4919746;29;20282;-90
2022/01/13 11:53:24;;;;;;;14.43;7.70;;;;;;;;;;4919913;29;20210;-90
2022/01/13 11:55:52;;;;;;;12.73;7.70;;;;;;;;;;4916871;29;20207;-90
2022/01/13 11:58:21;;;;;;;14.40;8.03;;;;;;;;;;4919093;29;20226;-90
2022/01/13 12:00:50;;;;;;;11.63;7.10;;;;;;;;;;4919953;29;20207;-89
2022/01/13 12:03:25;;;;;;;12.83;7.27;;;;;;;;;;4915849;29;20568;-90
2022/01/13 12:05:52;;;;;;;11.53;6.70;;;;;;;;;;4919521;29;20210;-89
2022/01/13 12:08:38;;;;;;;12.67;7.20;;;;;;;;;;4919597;29;20291;-89
2022/01/13 12:11:05;;;;;;;10.17;6.60;;;;;;;;;;4912423;29;20198;-90
2022/01/13 12:13:36;;;;;;;10.57;6.67;;;;;;;;;;4908838;29;20207;-89
2022/01/13 12:16:14;;;;;;;14.23;7.23;;;;;;;;;;4919734;29;20207;-90
2022/01/13 12:19:14;;;;;;;11.43;6.40;;;;;;;;;;4919573;29;20230;-90
2022/01/13 12:21:46;;;;;;;12.67;6.97;;;;;;;;;;4914913;29;20777;-90
2022/01/13 12:24:19;;;;;;;10.20;6.90;;;;;;;;;;4919567;29;20207;-90
2022/01/13 12:26:48;;;;;;;13.70;6.90;;;;;;;;;;4919492;29;20222;-90
2022/01/13 12:29:17;;;;;;;13.90;7.17;;;;;;;;;;4910492;29;20207;-90
2022/01/13 12:31:55;;;;;;;11.13;6.33;;;;;;;;;;4919261;29;20206;-90
2022/01/13 12:34:23;;;;;;;12.93;6.30;;;;;;;;;;4913268;29;20648;-90
2022/01/13 12:36:50;;;;;;;13.03;7.13;;;;;;;;;;4914852;29;20234;-90
2022/01/13 12:39:19;;;;;;;11.30;7.07;;;;;;;;;;4911634;29;20301;-91
2022/01/13 12:41:59;;;;;;;16.80;7.33;;;;;;;;;;4918809;29;20203;-90
2022/01/13 12:47:16;;;;;;;12.90;6.03;;;;;;;;;;4917696;29;20227;-89
2022/01/13 12:49:44;;;;;;;14.47;6.80;;;;;;;;;;4920792;29;20198;-90
2022/01/13 12:52:11;;;;;;;9.10;6.23;;;;;;;;;;4920347;29;20218;-91
2022/01/13 12:54:46;;;;;;;9.40;6.77;;;;;;;;;;4915064;29;20207;-90
2022/01/13 12:57:15;;;;;;;12.20;7.43;;;;;;;;;;4918115;29;20222;-90
2022/01/13 12:59:42;;;;;;;11.97;6.53;;;;;;;;;;4918957;29;20269;-90
2022/01/13 13:02:10;;;;;;;11.47;5.90;;;;;;;;;;4916460;29;20262;-90
2022/01/13 13:04:38;;;;;;;12.43;6.70;;;;;;;;;;4904875;29;20259;-90
2022/01/13 13:07:06;;;;;;;11.37;6.57;;;;;;;;;;4916836;29;20696;-90
2022/01/13 13:09:33;;;;;;;12.67;7.10;;;;;;;;;;4919036;29;20294;-90
2022/01/13 13:12:04;;;;;;;13.40;6.73;;;;;;;;;;4913610;29;20226;-90
2022/01/13 13:15:40;;;;;;;11.23;6.13;;;;;;;;;;4918444;29;20680;-90
2022/01/13 13:17:27;;;;;;;11.60;6.07;;;;;;;;;;4899280;29;20224;-90
2022/01/13 13:19:55;;;;;;;11.47;6.83;;;;;;;;;;4898813;29;20231;-89
2022/01/13 13:22:22;;;;;;;11.23;6.67;;;;;;;;;;4919864;29;20262;-89
2022/01/13 13:24:50;;;;;;;9.07;6.10;;;;;;;;;;4918099;29;20258;-89
2022/01/13 13:27:28;;;;;;;16.33;6.80;;;;;;;;;;4918290;29;20707;-90
2022/01/13 13:29:56;;;;;;;9.40;5.80;;;;;;;;;;4907515;29;20219;-90
2022/01/13 13:32:23;;;;;;;9.37;5.50;;;;;;;;;;4915332;29;20267;-89
2022/01/13 13:34:50;;;;;;;10.60;5.77;;;;;;;;;;4918278;29;20206;-90
2022/01/13 13:37:18;;;;;;;10.50;6.47;;;;;;;;;;4915121;29;20274;-90
2022/01/13 13:39:45;;;;;;;9.10;6.10;;;;;;;;;;4918138;29;20286;-90
2022/01/13 13:42:13;;;;;;;11.23;5.80;;;;;;;;;;4917980;29;20254;-90
2022/01/13 13:44:42;;;;;;;12.63;6.20;;;;;;;;;;4908448;29;20215;-89
2022/01/13 13:47:13;;;;;;;12.80;6.90;;;;;;;;;;4916642;29;20227;-89
2022/01/13 13:49:41;;;;;;;10.10;6.47;;;;;;;;;;4917942;29;20625;-90
2022/01/13 13:52:09;;;;;;;10.00;5.93;;;;;;;;;;4913839;29;20375;-89
2022/01/13 13:54:38;;;;;;;9.97;5.80;;;;;;;;;;4915766;29;20211;-89
2022/01/13 13:57:06;;;;;;;13.60;6.23;;;;;;;;;;4917388;29;20230;-90
2022/01/13 13:59:36;;;;;;;11.27;6.37;;;;;;;;;;4918271;29;20230;-89
2022/01/13 14:02:07;;;;;;;8.77;6.40;;;;;;;;;;4914578;29;20222;-90
2022/01/13 14:04:35;;;;;;;12.40;6.40;;;;;;;;;;4908139;29;20254;-89
2022/01/13 14:07:03;;;;;;;11.33;5.83;;;;;;;;;;4908344;29;20231;-89
2022/01/13 14:09:39;;;;;;;11.50;5.87;;;;;;;;;;4910078;29;20207;-89
2022/01/13 14:12:08;;;;;;;8.43;5.73;;;;;;;;;;4917483;29;20676;-89
2022/01/13 14:14:39;;;;;;;11.40;6.00;;;;;;;;;;4915198;29;20305;-90
2022/01/13 14:17:08;;;;;;;9.70;6.50;;;;;;;;;;4908759;29;20240;-90
2022/01/13 14:19:36;;;;;;;9.30;5.97;;;;;;;;;;4917218;29;20270;-89
2022/01/13 14:22:03;;;;;;;13.07;6.83;;;;;;;;;;4917763;29;20210;-90
2022/01/13 14:24:32;;;;;;;9.17;5.80;;;;;;;;;;4911394;29;20278;-89
2022/01/13 14:29:53;;;;;;;11.37;6.67;;;;;;;;;;4916006;29;20225;-90
2022/01/13 14:32:23;;;;;;;9.23;6.07;;;;;;;;;;4904547;29;20227;-89
2022/01/13 14:34:51;;;;;;;8.90;5.80;;;;;;;;;;4917118;29;20206;-90
2022/01/13 14:37:19;;;;;;;9.83;6.17;;;;;;;;;;4908631;29;20234;-89
2022/01/13 14:40:01;;;;;;;10.93;6.10;;;;;;;;;;4910575;29;20275;-89
2022/01/13 14:42:29;;;;;;;11.23;6.83;;;;;;;;;;4916710;29;20214;-89
2022/01/13 14:45:11;;;;;;;9.87;6.40;;;;;;;;;;4912237;29;20215;-89
2022/01/13 14:47:40;;;;;;;11.47;6.70;;;;;;;;;;4914183;29;20234;-89
2022/01/13 14:50:08;;;;;;;11.97;7.07;;;;;;;;;;4917326;29;20195;-90